Time;durP1;ratioP1;P1;durP2;ratioP2;P2;SDS_P1;SDS_P2;PMS_P1;PMS_P2;Temp;Humidity;BMP_temperature;BMP_pressure;BME280_temperature;BME280_humidity;BME280_pressure;Samples;Min_cycle;Max_cycle;Signal;HPM_P1;HPM_P2
2023/11/23 00:00:54;;;;;;;30.13;16.30;;;;;;;;;;2090969;28;20037;-53
2023/11/23 00:01:55;;;;;;;25.80;15.80;;;;;;;;;;2091126;28;20041;-55
2023/11/23 00:02:55;;;;;;;30.17;17.27;;;;;;;;;;2090935;28;20075;-56
2023/11/23 00:03:56;;;;;;;29.13;15.77;;;;;;;;;;2090969;28;20042;-53
2023/11/23 00:04:57;;;;;;;28.55;14.35;;;;;;;;;;2091358;28;20377;-56
2023/11/23 00:05:57;;;;;;;30.05;16.20;;;;;;;;;;2090814;28;20029;-53
2023/11/23 00:06:58;;;;;;;29.13;15.13;;;;;;;;;;2091071;28;20040;-53
2023/11/23 00:08:00;;;;;;;29.15;17.17;;;;;;;;;;2091218;28;20029;-54
2023/11/23 00:09:01;;;;;;;30.02;16.92;;;;;;;;;;2090704;28;20393;-55
2023/11/23 00:10:04;;;;;;;30.55;17.33;;;;;;;;;;2090942;28;20056;-53
2023/11/23 00:11:04;;;;;;;30.02;15.95;;;;;;;;;;2090970;28;20049;-54
2023/11/23 00:12:05;;;;;;;31.23;17.67;;;;;;;;;;2090926;28;20086;-54
2023/11/23 00:13:06;;;;;;;28.92;16.45;;;;;;;;;;2091054;28;20080;-54
2023/11/23 00:14:07;;;;;;;30.52;17.13;;;;;;;;;;2090905;28;20052;-53
2023/11/23 00:15:08;;;;;;;30.63;17.55;;;;;;;;;;2090974;28;20021;-54
2023/11/23 00:16:08;;;;;;;31.92;17.95;;;;;;;;;;2090257;28;20047;-54
2023/11/23 00:17:09;;;;;;;33.33;18.23;;;;;;;;;;2091055;28;20120;-54
2023/11/23 00:18:10;;;;;;;33.83;17.70;;;;;;;;;;2090969;28;20029;-54
2023/11/23 00:19:11;;;;;;;33.40;17.33;;;;;;;;;;2090193;28;20040;-53
2023/11/23 00:20:11;;;;;;;31.55;17.83;;;;;;;;;;2091066;28;20041;-54
2023/11/23 00:21:12;;;;;;;32.72;17.73;;;;;;;;;;2091390;28;20052;-56
2023/11/23 00:22:16;;;;;;;30.42;17.30;;;;;;;;;;2091123;28;20029;-53
2023/11/23 00:23:17;;;;;;;33.75;18.08;;;;;;;;;;2090809;28;20477;-54
2023/11/23 00:24:17;;;;;;;34.20;19.10;;;;;;;;;;2090816;28;20057;-54
2023/11/23 00:25:18;;;;;;;29.13;16.85;;;;;;;;;;2090911;28;20041;-54
2023/11/23 00:26:19;;;;;;;30.50;16.92;;;;;;;;;;2090753;28;20036;-53
2023/11/23 00:27:30;;;;;;;31.77;17.58;;;;;;;;;;2090950;28;20041;-55
2023/11/23 00:28:31;;;;;;;30.58;18.05;;;;;;;;;;2090796;28;20041;-54
2023/11/23 00:29:31;;;;;;;34.50;18.02;;;;;;;;;;2090813;28;20033;-53
2023/11/23 00:30:32;;;;;;;35.50;18.75;;;;;;;;;;2090595;28;20481;-54
2023/11/23 00:31:33;;;;;;;33.42;17.90;;;;;;;;;;2090772;28;20116;-54
2023/11/23 00:32:34;;;;;;;34.63;19.25;;;;;;;;;;2089584;28;20049;-54
2023/11/23 00:33:34;;;;;;;33.85;18.67;;;;;;;;;;2090256;28;20029;-53
2023/11/23 00:34:35;;;;;;;34.67;19.00;;;;;;;;;;2090532;28;20508;-53
2023/11/23 00:35:36;;;;;;;33.92;18.60;;;;;;;;;;2090224;28;20052;-54
2023/11/23 00:36:39;;;;;;;33.88;19.10;;;;;;;;;;2089418;28;20041;-53
2023/11/23 00:37:40;;;;;;;35.03;18.85;;;;;;;;;;2089476;28;20048;-54
2023/11/23 00:38:41;;;;;;;33.63;18.85;;;;;;;;;;2090083;28;20068;-53
2023/11/23 00:39:42;;;;;;;35.33;18.73;;;;;;;;;;2081738;28;20048;-53
2023/11/23 00:40:43;;;;;;;34.67;17.95;;;;;;;;;;2089842;28;20051;-54
2023/11/23 00:41:43;;;;;;;36.65;20.00;;;;;;;;;;2090181;28;20405;-55
2023/11/23 00:42:45;;;;;;;32.92;18.85;;;;;;;;;;2090829;28;20056;-53
2023/11/23 00:43:46;;;;;;;37.40;19.88;;;;;;;;;;2090361;28;20072;-53
2023/11/23 00:44:47;;;;;;;36.05;19.60;;;;;;;;;;2090647;28;20063;-53
2023/11/23 00:45:48;;;;;;;39.38;20.33;;;;;;;;;;2090653;28;20052;-53
2023/11/23 00:46:48;;;;;;;34.40;18.85;;;;;;;;;;2090629;28;20044;-53
2023/11/23 00:47:49;;;;;;;37.53;19.40;;;;;;;;;;2090012;28;20052;-53
2023/11/23 00:48:50;;;;;;;36.90;21.08;;;;;;;;;;2089729;28;20087;-53
2023/11/23 00:49:51;;;;;;;34.75;19.67;;;;;;;;;;2106370;28;20388;-53
2023/11/23 00:50:51;;;;;;;39.28;20.58;;;;;;;;;;2106091;28;20047;-55
2023/11/23 00:51:52;;;;;;;38.10;19.83;;;;;;;;;;2089703;28;20045;-53
2023/11/23 00:52:53;;;;;;;36.75;19.70;;;;;;;;;;2089709;28;20036;-54
2023/11/23 00:53:54;;;;;;;36.13;20.30;;;;;;;;;;2089705;28;20044;-56
2023/11/23 00:54:57;;;;;;;34.65;19.30;;;;;;;;;;2090221;28;20036;-53
2023/11/23 00:55:57;;;;;;;39.97;20.23;;;;;;;;;;2090626;28;20040;-55
2023/11/23 00:56:58;;;;;;;36.30;20.52;;;;;;;;;;2089872;28;20409;-55
2023/11/23 00:57:59;;;;;;;38.90;20.13;;;;;;;;;;2089705;28;20045;-55
2023/11/23 00:58:59;;;;;;;34.92;18.90;;;;;;;;;;2090469;28;20024;-56
2023/11/23 01:00:03;;;;;;;38.15;20.83;;;;;;;;;;2090297;28;20040;-55
2023/11/23 01:01:03;;;;;;;38.83;19.40;;;;;;;;;;2088722;28;20044;-55
2023/11/23 01:02:05;;;;;;;34.45;19.05;;;;;;;;;;2089460;28;20448;-55
2023/11/23 01:03:06;;;;;;;35.28;19.10;;;;;;;;;;2090545;28;20045;-56
2023/11/23 01:04:07;;;;;;;32.15;18.02;;;;;;;;;;2090312;28;20048;-55
2023/11/23 01:05:09;;;;;;;34.58;19.08;;;;;;;;;;2090778;28;20029;-55
2023/11/23 01:06:10;;;;;;;35.92;19.15;;;;;;;;;;2090468;28;20045;-55
2023/11/23 01:07:11;;;;;;;34.72;18.75;;;;;;;;;;2090501;28;20102;-55
2023/11/23 01:08:11;;;;;;;36.33;19.05;;;;;;;;;;2089961;28;20041;-53
2023/11/23 01:09:13;;;;;;;32.88;17.33;;;;;;;;;;2089903;28;20484;-53
2023/11/23 01:10:13;;;;;;;37.03;20.23;;;;;;;;;;2090773;28;20036;-53
2023/11/23 01:11:14;;;;;;;31.90;18.13;;;;;;;;;;2089805;28;20125;-54
2023/11/23 01:12:16;;;;;;;35.15;18.10;;;;;;;;;;2081169;28;20045;-54
2023/11/23 01:13:18;;;;;;;31.00;17.52;;;;;;;;;;2073764;28;20045;-54
2023/11/23 01:14:18;;;;;;;34.63;19.10;;;;;;;;;;2089853;28;20531;-54
2023/11/23 01:15:19;;;;;;;31.85;17.63;;;;;;;;;;2090566;28;20029;-55
2023/11/23 01:16:20;;;;;;;30.15;16.08;;;;;;;;;;2090363;28;20033;-54
2023/11/23 01:17:20;;;;;;;34.85;19.15;;;;;;;;;;2089502;28;20041;-54
2023/11/23 01:18:24;;;;;;;32.15;17.42;;;;;;;;;;2089851;28;20060;-54
2023/11/23 01:19:25;;;;;;;34.53;18.15;;;;;;;;;;2089200;28;20396;-54
2023/11/23 01:20:25;;;;;;;33.90;19.05;;;;;;;;;;2090518;28;20048;-54
2023/11/23 01:21:26;;;;;;;31.00;17.85;;;;;;;;;;2090105;28;20065;-53
2023/11/23 01:22:27;;;;;;;33.22;19.23;;;;;;;;;;2089762;28;20028;-55
2023/11/23 01:23:27;;;;;;;33.13;19.15;;;;;;;;;;2090397;28;20033;-54
2023/11/23 01:24:28;;;;;;;32.25;18.40;;;;;;;;;;2089985;28;20024;-54
2023/11/23 01:25:29;;;;;;;35.20;18.23;;;;;;;;;;2073155;28;20049;-54
2023/11/23 01:26:30;;;;;;;30.38;17.83;;;;;;;;;;2081595;28;20030;-54
2023/11/23 01:27:31;;;;;;;34.45;17.65;;;;;;;;;;2090582;28;20036;-54
2023/11/23 01:28:31;;;;;;;29.25;17.88;;;;;;;;;;2090124;28;20041;-55
2023/11/23 01:29:32;;;;;;;33.33;18.35;;;;;;;;;;2090068;28;20404;-54
2023/11/23 01:30:33;;;;;;;31.70;17.25;;;;;;;;;;2090244;28;20057;-54
2023/11/23 01:31:34;;;;;;;31.98;17.50;;;;;;;;;;2089833;28;20099;-54
2023/11/23 01:32:34;;;;;;;33.83;17.58;;;;;;;;;;2081499;28;20046;-53
2023/11/23 01:33:35;;;;;;;33.00;17.52;;;;;;;;;;2090124;28;20048;-54
2023/11/23 01:34:36;;;;;;;30.40;16.48;;;;;;;;;;2089884;28;20515;-54
2023/11/23 01:35:37;;;;;;;34.05;18.00;;;;;;;;;;2090275;28;20408;-54
2023/11/23 01:36:37;;;;;;;30.90;16.58;;;;;;;;;;2090351;28;20078;-53
2023/11/23 01:37:38;;;;;;;31.25;18.48;;;;;;;;;;2090261;28;20460;-54
2023/11/23 01:38:39;;;;;;;30.55;16.90;;;;;;;;;;2090464;28;20401;-54
2023/11/23 01:39:40;;;;;;;29.80;16.98;;;;;;;;;;2090137;28;20044;-54
2023/11/23 01:40:41;;;;;;;35.95;19.08;;;;;;;;;;2090001;28;20045;-55
2023/11/23 01:41:41;;;;;;;33.78;18.27;;;;;;;;;;2090218;28;20049;-54
2023/11/23 01:42:42;;;;;;;31.77;17.77;;;;;;;;;;2090183;28;20028;-54
2023/11/23 01:43:46;;;;;;;34.08;18.23;;;;;;;;;;2089915;28;20044;-54
2023/11/23 01:44:47;;;;;;;34.88;18.02;;;;;;;;;;2089967;28;20485;-54
2023/11/23 01:45:48;;;;;;;35.03;18.23;;;;;;;;;;2090234;28;20045;-54
2023/11/23 01:46:48;;;;;;;32.38;17.73;;;;;;;;;;2090216;28;20476;-55
2023/11/23 01:47:49;;;;;;;31.75;17.67;;;;;;;;;;2089179;28;20033;-54
2023/11/23 01:48:50;;;;;;;33.95;17.85;;;;;;;;;;2089786;28;20017;-54
2023/11/23 01:49:50;;;;;;;31.75;16.88;;;;;;;;;;2089970;28;20049;-53
2023/11/23 01:50:51;;;;;;;30.70;17.17;;;;;;;;;;2089871;28;20048;-55
2023/11/23 01:51:52;;;;;;;35.13;19.38;;;;;;;;;;2089746;28;20028;-55
2023/11/23 01:52:53;;;;;;;33.40;17.60;;;;;;;;;;2090509;28;20373;-54
2023/11/23 01:53:53;;;;;;;33.20;18.65;;;;;;;;;;2081052;28;20048;-54
2023/11/23 01:54:54;;;;;;;33.38;18.27;;;;;;;;;;2081591;28;20022;-55
2023/11/23 01:55:56;;;;;;;31.13;15.57;;;;;;;;;;2106463;28;20043;-54
2023/11/23 01:56:56;;;;;;;34.88;19.75;;;;;;;;;;2089450;28;20128;-54
2023/11/23 01:57:57;;;;;;;35.85;19.08;;;;;;;;;;2081572;28;20037;-54
2023/11/23 01:58:59;;;;;;;33.35;18.92;;;;;;;;;;2089544;28;20033;-55
2023/11/23 01:59:59;;;;;;;33.17;18.67;;;;;;;;;;2081348;28;20041;-53
2023/11/23 02:01:00;;;;;;;33.17;17.90;;;;;;;;;;2081210;28;20069;-54
2023/11/23 02:02:04;;;;;;;35.55;19.15;;;;;;;;;;2089087;28;20041;-54
2023/11/23 02:03:05;;;;;;;33.40;18.00;;;;;;;;;;2090364;28;20100;-54
2023/11/23 02:04:06;;;;;;;32.13;17.08;;;;;;;;;;2089581;28;20063;-54
2023/11/23 02:05:07;;;;;;;31.40;17.88;;;;;;;;;;2097568;28;20068;-55
2023/11/23 02:06:07;;;;;;;31.10;17.40;;;;;;;;;;2097965;28;20138;-54
2023/11/23 02:07:08;;;;;;;33.10;18.08;;;;;;;;;;2081210;28;20049;-54
2023/11/23 02:08:09;;;;;;;34.13;18.25;;;;;;;;;;2089278;28;20167;-53
2023/11/23 02:09:10;;;;;;;33.08;17.40;;;;;;;;;;2089704;28;20045;-55
2023/11/23 02:10:10;;;;;;;31.33;19.13;;;;;;;;;;2097317;28;20044;-54
2023/11/23 02:11:11;;;;;;;33.90;18.45;;;;;;;;;;2097482;28;20396;-54
2023/11/23 02:12:12;;;;;;;32.10;17.48;;;;;;;;;;2089607;28;20040;-54
2023/11/23 02:13:12;;;;;;;34.17;18.25;;;;;;;;;;2090203;28;20032;-53
2023/11/23 02:14:13;;;;;;;30.58;17.50;;;;;;;;;;2091491;28;20047;-54
2023/11/23 02:15:14;;;;;;;36.33;19.27;;;;;;;;;;2091369;28;20085;-54
2023/11/23 02:16:15;;;;;;;33.67;16.95;;;;;;;;;;2091305;28;20032;-55
2023/11/23 02:17:16;;;;;;;33.80;19.17;;;;;;;;;;2091127;28;20052;-55
2023/11/23 02:18:17;;;;;;;32.60;16.90;;;;;;;;;;2082914;28;20084;-54
2023/11/23 02:19:18;;;;;;;31.25;17.27;;;;;;;;;;2081524;28;20060;-55
2023/11/23 02:20:18;;;;;;;31.85;17.30;;;;;;;;;;2090725;28;20041;-54
2023/11/23 02:21:20;;;;;;;37.53;19.48;;;;;;;;;;2091791;28;20032;-52
2023/11/23 02:22:21;;;;;;;30.45;16.45;;;;;;;;;;2092051;28;20025;-54
2023/11/23 02:23:21;;;;;;;31.48;17.33;;;;;;;;;;2091460;28;20037;-54
2023/11/23 02:24:22;;;;;;;32.92;19.52;;;;;;;;;;2082786;28;20041;-54
2023/11/23 02:25:25;;;;;;;30.25;17.65;;;;;;;;;;2091457;28;20378;-55
2023/11/23 02:26:26;;;;;;;28.38;17.55;;;;;;;;;;2091762;28;20045;-53
2023/11/23 02:27:27;;;;;;;33.30;18.75;;;;;;;;;;2091733;28;20040;-53
2023/11/23 02:28:28;;;;;;;31.83;18.60;;;;;;;;;;2090850;28;20048;-54
2023/11/23 02:29:29;;;;;;;30.35;17.25;;;;;;;;;;2082627;28;20049;-53
2023/11/23 02:30:30;;;;;;;33.20;17.58;;;;;;;;;;2091093;28;20421;-54
2023/11/23 02:31:34;;;;;;;29.60;17.00;;;;;;;;;;2091722;28;20041;-54
2023/11/23 02:32:34;;;;;;;31.63;17.05;;;;;;;;;;2091755;28;20055;-53
2023/11/23 02:33:36;;;;;;;30.65;17.20;;;;;;;;;;2091049;28;20049;-55
2023/11/23 02:34:37;;;;;;;28.90;16.33;;;;;;;;;;2083136;28;20056;-54
2023/11/23 02:35:38;;;;;;;33.30;16.42;;;;;;;;;;2091470;28;20060;-55
2023/11/23 02:36:40;;;;;;;33.05;16.27;;;;;;;;;;2091599;28;20103;-55
2023/11/23 02:37:41;;;;;;;27.80;15.15;;;;;;;;;;2091584;28;20037;-54
2023/11/23 02:38:41;;;;;;;27.30;15.65;;;;;;;;;;2091749;28;20063;-55
2023/11/23 02:39:43;;;;;;;33.00;17.80;;;;;;;;;;2091415;28;20040;-54
2023/11/23 02:40:44;;;;;;;30.42;15.93;;;;;;;;;;2091380;28;20496;-54
2023/11/23 02:41:46;;;;;;;32.78;17.88;;;;;;;;;;2090944;28;20128;-55
2023/11/23 02:42:47;;;;;;;34.60;18.85;;;;;;;;;;2091261;28;20048;-54
2023/11/23 02:43:48;;;;;;;31.63;17.30;;;;;;;;;;2090980;28;20036;-56
2023/11/23 02:44:49;;;;;;;32.17;17.85;;;;;;;;;;2091913;28;20032;-55
2023/11/23 02:45:50;;;;;;;33.50;16.67;;;;;;;;;;2091852;28;20070;-53
2023/11/23 02:46:51;;;;;;;29.67;16.75;;;;;;;;;;2091472;28;20025;-56
2023/11/23 02:47:52;;;;;;;32.22;18.92;;;;;;;;;;2090720;28;20074;-53
2023/11/23 02:48:53;;;;;;;31.10;16.65;;;;;;;;;;2091023;28;20029;-56
2023/11/23 02:49:54;;;;;;;28.20;16.65;;;;;;;;;;2091473;28;20374;-55
2023/11/23 02:50:54;;;;;;;30.42;17.27;;;;;;;;;;2091331;28;20481;-55
2023/11/23 02:51:57;;;;;;;27.30;15.32;;;;;;;;;;2091198;28;20021;-54
2023/11/23 02:52:58;;;;;;;27.55;15.88;;;;;;;;;;2090930;28;20029;-53
2023/11/23 02:53:59;;;;;;;28.45;16.70;;;;;;;;;;2091508;28;20429;-53
2023/11/23 02:55:00;;;;;;;33.97;17.42;;;;;;;;;;2091518;28;20028;-56
2023/11/23 02:56:00;;;;;;;30.50;17.35;;;;;;;;;;2091494;28;20108;-54
2023/11/23 02:57:01;;;;;;;29.88;16.33;;;;;;;;;;2092055;28;20042;-55
2023/11/23 02:58:02;;;;;;;29.13;16.73;;;;;;;;;;2091541;28;20052;-54
2023/11/23 02:59:03;;;;;;;30.08;16.25;;;;;;;;;;2091552;28;20148;-55
2023/11/23 03:00:05;;;;;;;28.25;15.95;;;;;;;;;;2091280;28;20029;-56
2023/11/23 03:01:07;;;;;;;27.38;15.70;;;;;;;;;;2091626;28;20041;-54
2023/11/23 03:02:08;;;;;;;24.85;14.55;;;;;;;;;;2090859;28;20071;-53
2023/11/23 03:03:09;;;;;;;31.75;18.08;;;;;;;;;;2090816;28;20037;-54
2023/11/23 03:04:09;;;;;;;27.48;15.02;;;;;;;;;;2091806;28;20028;-54
2023/11/23 03:05:10;;;;;;;29.02;16.25;;;;;;;;;;2091540;28;20033;-54
2023/11/23 03:06:11;;;;;;;28.30;15.55;;;;;;;;;;2091850;28;20090;-55
2023/11/23 03:07:12;;;;;;;28.73;16.10;;;;;;;;;;2091477;28;20045;-54
2023/11/23 03:08:12;;;;;;;26.23;16.13;;;;;;;;;;2090837;28;20064;-54
2023/11/23 03:09:13;;;;;;;27.70;15.60;;;;;;;;;;2090329;28;20044;-54
2023/11/23 03:10:15;;;;;;;23.75;13.32;;;;;;;;;;2091733;28;20053;-54
2023/11/23 03:11:18;;;;;;;26.55;15.15;;;;;;;;;;2091738;28;20037;-54
2023/11/23 03:12:19;;;;;;;27.77;15.13;;;;;;;;;;2091475;28;20052;-54
2023/11/23 03:13:20;;;;;;;29.00;17.42;;;;;;;;;;2091570;28;20384;-54
2023/11/23 03:14:20;;;;;;;25.98;15.52;;;;;;;;;;2090795;28;20037;-54
2023/11/23 03:15:21;;;;;;;24.75;14.27;;;;;;;;;;2090469;28;20041;-54
2023/11/23 03:16:24;;;;;;;26.33;15.70;;;;;;;;;;2090943;28;20231;-54
2023/11/23 03:17:25;;;;;;;30.25;16.35;;;;;;;;;;2091048;28;20041;-55
2023/11/23 03:18:26;;;;;;;30.30;17.63;;;;;;;;;;2090996;28;20452;-56
2023/11/23 03:19:27;;;;;;;25.65;15.05;;;;;;;;;;2089319;28;20041;-54
2023/11/23 03:20:27;;;;;;;28.27;16.10;;;;;;;;;;2090805;28;20036;-54
2023/11/23 03:21:28;;;;;;;27.30;14.93;;;;;;;;;;2091397;28;20029;-55
2023/11/23 03:22:29;;;;;;;27.00;13.93;;;;;;;;;;2090513;28;20071;-55
2023/11/23 03:23:30;;;;;;;28.73;16.10;;;;;;;;;;2090546;28;20044;-56
2023/11/23 03:24:31;;;;;;;26.90;15.70;;;;;;;;;;2090331;28;20048;-54
2023/11/23 03:25:32;;;;;;;27.85;15.88;;;;;;;;;;2091272;28;20388;-54
2023/11/23 03:26:32;;;;;;;28.15;13.43;;;;;;;;;;2091355;28;20049;-55
2023/11/23 03:27:36;;;;;;;26.70;15.63;;;;;;;;;;2090522;28;20029;-55
2023/11/23 03:28:37;;;;;;;28.10;16.55;;;;;;;;;;2090695;28;20041;-53
2023/11/23 03:29:38;;;;;;;25.83;15.68;;;;;;;;;;2091528;28;20025;-57
2023/11/23 03:30:39;;;;;;;30.85;15.75;;;;;;;;;;2091104;28;20055;-53
2023/11/23 03:31:39;;;;;;;26.52;14.45;;;;;;;;;;2091305;28;20477;-53
2023/11/23 03:32:40;;;;;;;25.95;16.65;;;;;;;;;;2091325;28;20049;-55
2023/11/23 03:33:41;;;;;;;27.30;15.90;;;;;;;;;;2090921;28;20056;-53
2023/11/23 03:34:42;;;;;;;28.80;15.05;;;;;;;;;;2091251;28;20489;-55
2023/11/23 03:35:44;;;;;;;25.23;15.77;;;;;;;;;;2091201;28;20041;-55
2023/11/23 03:36:45;;;;;;;27.83;15.38;;;;;;;;;;2091125;28;20129;-54
2023/11/23 03:37:45;;;;;;;25.98;15.95;;;;;;;;;;2090786;28;20077;-54
2023/11/23 03:38:47;;;;;;;24.38;13.75;;;;;;;;;;2091374;28;20040;-54
2023/11/23 03:39:48;;;;;;;26.15;15.02;;;;;;;;;;2090539;28;20060;-55
2023/11/23 03:40:49;;;;;;;27.83;15.85;;;;;;;;;;2090534;28;20091;-55
2023/11/23 03:41:50;;;;;;;27.13;14.90;;;;;;;;;;2091164;28;20037;-53
2023/11/23 03:42:50;;;;;;;29.70;16.88;;;;;;;;;;2091160;28;20048;-56
2023/11/23 03:43:51;;;;;;;27.50;16.75;;;;;;;;;;2090901;28;20041;-53
2023/11/23 03:44:52;;;;;;;28.85;15.60;;;;;;;;;;2091396;28;20040;-54
2023/11/23 03:45:53;;;;;;;26.33;15.50;;;;;;;;;;2090943;28;20397;-53
2023/11/23 03:46:53;;;;;;;28.08;16.30;;;;;;;;;;2091079;28;20037;-54
2023/11/23 03:47:54;;;;;;;26.95;16.65;;;;;;;;;;2090812;28;20036;-54
2023/11/23 03:48:56;;;;;;;27.55;14.48;;;;;;;;;;2090665;28;20045;-54
2023/11/23 03:49:57;;;;;;;26.60;15.88;;;;;;;;;;2090721;28;20025;-54
2023/11/23 03:50:57;;;;;;;24.35;15.00;;;;;;;;;;2090942;28;20044;-53
2023/11/23 03:51:58;;;;;;;29.85;15.77;;;;;;;;;;2090747;28;20040;-54
2023/11/23 03:52:59;;;;;;;28.02;16.27;;;;;;;;;;2090955;28;20044;-54
2023/11/23 03:54:02;;;;;;;27.48;15.75;;;;;;;;;;2090687;28;20067;-54
2023/11/23 03:55:03;;;;;;;27.33;14.32;;;;;;;;;;2091112;28;20037;-55
2023/11/23 03:56:04;;;;;;;27.70;16.23;;;;;;;;;;2091241;28;20354;-54
2023/11/23 03:57:05;;;;;;;30.13;15.73;;;;;;;;;;2089945;28;20045;-53
2023/11/23 03:58:05;;;;;;;29.42;17.10;;;;;;;;;;2090862;28;20021;-54
2023/11/23 03:59:06;;;;;;;27.90;16.13;;;;;;;;;;2091062;28;20052;-55
2023/11/23 04:00:07;;;;;;;29.05;16.85;;;;;;;;;;2090861;28;20033;-55
2023/11/23 04:01:09;;;;;;;29.45;16.20;;;;;;;;;;2090983;28;20056;-56
2023/11/23 04:02:10;;;;;;;27.38;15.82;;;;;;;;;;2091281;28;20021;-58
2023/11/23 04:03:10;;;;;;;27.00;16.20;;;;;;;;;;2089877;28;20045;-54
2023/11/23 04:04:12;;;;;;;29.42;17.17;;;;;;;;;;2090477;28;20032;-53
2023/11/23 04:05:18;;;;;;;28.33;15.00;;;;;;;;;;2090859;28;20029;-54
2023/11/23 04:06:19;;;;;;;28.67;16.08;;;;;;;;;;2090967;28;20057;-54
2023/11/23 04:07:21;;;;;;;27.80;15.77;;;;;;;;;;2091222;28;20025;-54
2023/11/23 04:08:23;;;;;;;25.23;15.38;;;;;;;;;;2091195;28;20037;-55
2023/11/23 04:09:24;;;;;;;30.52;16.73;;;;;;;;;;2091079;28;20040;-55
2023/11/23 04:10:25;;;;;;;29.20;14.90;;;;;;;;;;2091024;28;20044;-54
2023/11/23 04:11:26;;;;;;;27.63;15.82;;;;;;;;;;2091036;28;20440;-55
2023/11/23 04:12:28;;;;;;;27.92;16.75;;;;;;;;;;2090600;28;20049;-54
2023/11/23 04:13:29;;;;;;;27.20;16.23;;;;;;;;;;2091209;28;20037;-54
2023/11/23 04:14:30;;;;;;;26.02;15.10;;;;;;;;;;2091248;28;20029;-54
2023/11/23 04:15:31;;;;;;;28.50;16.55;;;;;;;;;;2091194;28;20142;-55
2023/11/23 04:16:32;;;;;;;25.02;13.15;;;;;;;;;;2091006;28;20105;-54
2023/11/23 04:17:33;;;;;;;20.27;10.10;;;;;;;;;;2091041;28;20065;-55
2023/11/23 04:18:33;;;;;;;23.90;13.18;;;;;;;;;;2090902;28;20037;-54
2023/11/23 04:19:34;;;;;;;23.63;12.27;;;;;;;;;;2089686;28;20032;-54
2023/11/23 04:20:35;;;;;;;24.13;12.45;;;;;;;;;;2090867;28;20028;-55
2023/11/23 04:21:36;;;;;;;20.17;11.20;;;;;;;;;;2090864;28;20043;-54
2023/11/23 04:22:37;;;;;;;23.05;12.98;;;;;;;;;;2090946;28;20396;-54
2023/11/23 04:23:37;;;;;;;25.48;14.82;;;;;;;;;;2091040;28;20041;-55
2023/11/23 04:24:40;;;;;;;27.85;14.63;;;;;;;;;;2091250;28;20036;-55
2023/11/23 04:25:41;;;;;;;24.98;14.73;;;;;;;;;;2090813;28;20044;-54
2023/11/23 04:26:41;;;;;;;23.77;14.35;;;;;;;;;;2090934;28;20045;-54
2023/11/23 04:27:42;;;;;;;26.60;15.00;;;;;;;;;;2090858;28;20029;-54
2023/11/23 04:28:43;;;;;;;25.17;14.55;;;;;;;;;;2090771;28;20033;-54
2023/11/23 04:29:44;;;;;;;26.50;14.98;;;;;;;;;;2090811;28;20389;-54
2023/11/23 04:30:44;;;;;;;25.77;14.98;;;;;;;;;;2090515;28;20076;-54
2023/11/23 04:31:45;;;;;;;26.95;15.85;;;;;;;;;;2091189;28;20044;-54
2023/11/23 04:32:46;;;;;;;23.50;12.55;;;;;;;;;;2090741;28;20067;-54
2023/11/23 04:33:47;;;;;;;22.77;13.65;;;;;;;;;;2090452;28;20037;-54
2023/11/23 04:34:48;;;;;;;24.17;12.85;;;;;;;;;;2090765;28;20499;-55
2023/11/23 04:35:48;;;;;;;25.05;13.95;;;;;;;;;;2090071;28;20033;-54
2023/11/23 04:36:49;;;;;;;22.70;13.27;;;;;;;;;;2090709;28;20029;-54
2023/11/23 04:37:50;;;;;;;23.75;13.25;;;;;;;;;;2090970;28;20017;-55
2023/11/23 04:38:50;;;;;;;24.42;13.50;;;;;;;;;;2091010;28;20048;-54
2023/11/23 04:39:51;;;;;;;22.60;12.30;;;;;;;;;;2090896;28;20025;-54
2023/11/23 04:40:52;;;;;;;23.08;12.90;;;;;;;;;;2090979;28;20024;-53
2023/11/23 04:41:53;;;;;;;23.02;13.77;;;;;;;;;;2090778;28;20421;-54
2023/11/23 04:42:53;;;;;;;23.08;12.45;;;;;;;;;;2090722;28;20473;-54
2023/11/23 04:43:54;;;;;;;26.88;14.52;;;;;;;;;;2090656;28;20048;-53
2023/11/23 04:44:55;;;;;;;24.73;13.50;;;;;;;;;;2090834;28;20037;-54
2023/11/23 04:45:55;;;;;;;23.05;12.85;;;;;;;;;;2090884;28;20028;-56
2023/11/23 04:46:56;;;;;;;22.63;14.05;;;;;;;;;;2090817;28;20025;-54
2023/11/23 04:47:57;;;;;;;24.42;13.80;;;;;;;;;;2090855;28;20078;-54
2023/11/23 04:48:58;;;;;;;24.20;13.90;;;;;;;;;;2090342;28;20481;-54
2023/11/23 04:49:58;;;;;;;22.50;13.02;;;;;;;;;;2090636;28;20056;-54
2023/11/23 04:50:59;;;;;;;25.05;14.82;;;;;;;;;;2090613;28;20017;-55
2023/11/23 04:52:00;;;;;;;21.05;10.52;;;;;;;;;;2090593;28;20029;-54
2023/11/23 04:53:01;;;;;;;22.77;13.35;;;;;;;;;;2090974;28;20034;-56
2023/11/23 04:54:02;;;;;;;19.13;10.65;;;;;;;;;;2090696;28;20024;-54
2023/11/23 04:55:03;;;;;;;17.67;7.75;;;;;;;;;;2090911;28;20033;-54
2023/11/23 04:56:05;;;;;;;23.40;13.10;;;;;;;;;;2091330;28;20544;-54
2023/11/23 04:57:06;;;;;;;21.85;12.80;;;;;;;;;;2090023;28;20033;-54
2023/11/23 04:58:07;;;;;;;21.83;13.23;;;;;;;;;;2090028;28;20376;-54
2023/11/23 04:59:07;;;;;;;23.60;13.27;;;;;;;;;;2090994;28;20086;-54
2023/11/23 05:00:10;;;;;;;23.05;12.02;;;;;;;;;;2089965;28;20403;-55
2023/11/23 05:01:11;;;;;;;22.00;12.27;;;;;;;;;;2090335;28;20045;-53
2023/11/23 05:02:11;;;;;;;22.00;11.52;;;;;;;;;;2090548;28;20499;-53
2023/11/23 05:03:12;;;;;;;25.08;12.20;;;;;;;;;;2090599;28;20041;-54
2023/11/23 05:04:13;;;;;;;24.10;12.60;;;;;;;;;;2090506;28;20028;-54
2023/11/23 05:05:13;;;;;;;18.77;9.35;;;;;;;;;;2090780;28;20033;-54
2023/11/23 05:06:15;;;;;;;16.98;7.70;;;;;;;;;;2091342;28;20081;-55
2023/11/23 05:07:16;;;;;;;21.00;11.32;;;;;;;;;;2091251;28;20056;-54
2023/11/23 05:08:17;;;;;;;21.77;12.13;;;;;;;;;;2090462;28;20045;-54
2023/11/23 05:09:18;;;;;;;19.75;9.90;;;;;;;;;;2090413;28;20044;-54
2023/11/23 05:10:20;;;;;;;22.58;11.75;;;;;;;;;;2090370;28;20120;-55
2023/11/23 05:11:20;;;;;;;22.33;9.75;;;;;;;;;;2090279;28;20051;-54
2023/11/23 05:12:21;;;;;;;16.95;9.38;;;;;;;;;;2090473;28;20075;-54
2023/11/23 05:13:22;;;;;;;18.52;8.77;;;;;;;;;;2090581;28;20029;-54
2023/11/23 05:14:22;;;;;;;23.10;12.65;;;;;;;;;;2090428;28;20041;-55
2023/11/23 05:15:23;;;;;;;20.92;10.15;;;;;;;;;;2090443;28;20374;-54
2023/11/23 05:16:24;;;;;;;22.60;11.05;;;;;;;;;;2090597;28;20112;-55
2023/11/23 05:17:25;;;;;;;23.52;14.40;;;;;;;;;;2090577;28;20025;-54
2023/11/23 05:18:25;;;;;;;30.67;14.63;;;;;;;;;;2090353;28;20040;-53
2023/11/23 05:19:26;;;;;;;27.05;13.68;;;;;;;;;;2089016;28;20029;-54
2023/11/23 05:20:27;;;;;;;26.23;14.23;;;;;;;;;;2090418;28;20040;-53
2023/11/23 05:21:28;;;;;;;28.73;13.93;;;;;;;;;;2090311;28;20374;-54
2023/11/23 05:22:29;;;;;;;23.38;12.38;;;;;;;;;;2089633;28;20044;-55
2023/11/23 05:23:30;;;;;;;23.20;12.05;;;;;;;;;;2090592;28;20496;-53
2023/11/23 05:24:30;;;;;;;27.02;15.15;;;;;;;;;;2090367;28;20056;-55
2023/11/23 05:25:31;;;;;;;24.98;12.95;;;;;;;;;;2090373;28;20033;-55
2023/11/23 05:26:32;;;;;;;23.45;11.57;;;;;;;;;;2090564;28;20025;-53
2023/11/23 05:27:33;;;;;;;10.73;5.40;;;;;;;;;;2089933;28;20033;-53
2023/11/23 05:28:34;;;;;;;22.55;10.60;;;;;;;;;;2090169;28;20040;-54
2023/11/23 05:29:34;;;;;;;23.85;13.55;;;;;;;;;;2090362;28;20037;-55
2023/11/23 05:30:35;;;;;;;23.83;13.68;;;;;;;;;;2090281;28;20114;-54
2023/11/23 05:31:36;;;;;;;23.17;12.07;;;;;;;;;;2090459;28;20041;-52
2023/11/23 05:32:37;;;;;;;24.05;13.20;;;;;;;;;;2090740;28;20041;-54
2023/11/23 05:33:37;;;;;;;19.10;9.68;;;;;;;;;;2090030;28;20091;-54
2023/11/23 05:34:38;;;;;;;22.77;11.77;;;;;;;;;;2090949;28;20053;-53
2023/11/23 05:35:39;;;;;;;21.55;11.43;;;;;;;;;;2090583;28;20067;-54
2023/11/23 05:36:40;;;;;;;24.25;12.85;;;;;;;;;;2090609;28;20052;-53
2023/11/23 05:37:40;;;;;;;26.27;14.18;;;;;;;;;;2090402;28;20040;-53
2023/11/23 05:38:41;;;;;;;27.30;13.35;;;;;;;;;;2090287;28;20044;-54
2023/11/23 05:39:42;;;;;;;20.15;9.82;;;;;;;;;;2090293;28;20040;-55
2023/11/23 05:40:42;;;;;;;26.33;12.98;;;;;;;;;;2090260;28;20044;-55
2023/11/23 05:41:43;;;;;;;20.13;10.88;;;;;;;;;;2090364;28;20033;-54
2023/11/23 05:42:46;;;;;;;15.57;7.82;;;;;;;;;;2090492;28;20029;-54
2023/11/23 05:43:48;;;;;;;20.83;10.07;;;;;;;;;;2090417;28;20048;-53
2023/11/23 05:44:48;;;;;;;20.88;10.40;;;;;;;;;;2090287;28;20041;-54
2023/11/23 05:45:49;;;;;;;25.48;11.50;;;;;;;;;;2090584;28;20029;-53
2023/11/23 05:46:51;;;;;;;20.63;10.55;;;;;;;;;;2088917;28;20047;-54
2023/11/23 05:47:52;;;;;;;27.02;13.48;;;;;;;;;;2089814;28;20025;-53
2023/11/23 05:48:53;;;;;;;22.83;12.18;;;;;;;;;;2090447;28;20047;-54
2023/11/23 05:49:54;;;;;;;26.13;13.43;;;;;;;;;;2090232;28;20465;-54
2023/11/23 05:50:54;;;;;;;23.48;11.80;;;;;;;;;;2090522;28;20026;-55
2023/11/23 05:51:55;;;;;;;25.77;14.57;;;;;;;;;;2090536;28;20033;-54
2023/11/23 05:52:56;;;;;;;27.00;14.63;;;;;;;;;;2090227;28;20415;-54
2023/11/23 05:53:56;;;;;;;23.95;12.32;;;;;;;;;;2090269;28;20033;-55
2023/11/23 05:54:57;;;;;;;23.08;9.70;;;;;;;;;;2090226;28;20123;-57
2023/11/23 05:55:58;;;;;;;22.08;10.13;;;;;;;;;;2089689;28;20036;-56